createdAt,value
2022-08-09T00:00:32.211Z,99872.52
2022-08-09T00:01:14.481Z,99874.08
2022-08-09T00:01:54.812Z,99874.11
2022-08-09T00:02:28.170Z,99878.38
2022-08-09T00:02:59.947Z,99877.52
2022-08-09T00:04:10.960Z,99874.69
2022-08-09T00:04:34.339Z,99876.33
2022-08-09T00:06:18.097Z,99880.06
2022-08-09T00:06:18.225Z,99876.39
2022-08-09T00:06:51.488Z,99875.98
2022-08-09T00:07:24.958Z,99877.95
2022-08-09T00:08:01.665Z,99876.10
2022-08-09T00:08:34.241Z,99877.90
2022-08-09T00:09:05.995Z,99879.95
2022-08-09T00:09:42.669Z,99881.33
2022-08-09T00:10:20.973Z,99882.30
2022-08-09T00:10:53.098Z,99883.80
2022-08-09T00:11:54.989Z,99882.41
2022-08-09T00:12:22.804Z,99880.43
2022-08-09T00:12:54.786Z,99883.30
2022-08-09T00:13:27.474Z,99885.70
2022-08-09T00:13:59.327Z,99884.91
2022-08-09T00:14:38.309Z,99882.15
2022-08-09T00:15:14.691Z,99880.99
2022-08-09T00:15:59.092Z,99882.22
2022-08-09T00:16:36.680Z,99881.48
2022-08-09T00:17:10.320Z,99880.88
2022-08-09T00:18:09.512Z,99879.94
2022-08-09T00:18:44.614Z,99875.98
2022-08-09T00:19:18.598Z,99876.89
2022-08-09T00:19:50.331Z,99875.33
2022-08-09T00:20:23.782Z,99876.88
2022-08-09T00:20:55.591Z,99877.03
2022-08-09T00:21:27.427Z,99876.59
2022-08-09T00:22:01.181Z,99878.88
2022-08-09T00:22:36.324Z,99878.91
2022-08-09T00:23:10.045Z,99878.10
2022-08-09T00:24:00.184Z,99877.70
2022-08-09T00:24:32.769Z,99878.36
2022-08-09T00:25:10.004Z,99879.42
2022-08-09T00:25:44.373Z,99880.93
2022-08-09T00:26:29.918Z,99884.41
2022-08-09T00:27:04.765Z,99880.48
2022-08-09T00:27:36.662Z,99881.38
2022-08-09T00:28:15.146Z,99884.05
2022-08-09T00:28:52.833Z,99878.16
2022-08-09T00:29:39.860Z,99881.14
2022-08-09T00:30:26.066Z,99881.19
2022-08-09T00:30:58.761Z,99880.73
2022-08-09T00:31:59.431Z,99882.16
2022-08-09T00:32:25.431Z,99881.90
2022-08-09T00:32:59.781Z,99880.12
2022-08-09T00:33:32.617Z,99882.38
2022-08-09T00:34:20.800Z,99881.80
2022-08-09T00:34:52.964Z,99883.12
2022-08-09T00:35:25.475Z,99881.69
2022-08-09T00:36:02.506Z,99880.79
2022-08-09T00:36:34.385Z,99880.71
2022-08-09T00:37:06.835Z,99879.44
2022-08-09T00:37:39.188Z,99880.87
2022-08-09T00:38:12.455Z,99880.50
2022-08-09T00:38:45.008Z,99878.52
2022-08-09T00:40:09.707Z,99879.30
2022-08-09T00:40:16.782Z,99880.14
2022-08-09T00:40:52.666Z,99880.55
2022-08-09T00:44:10.888Z,99877.82
2022-08-09T00:44:11.020Z,99877.38
2022-08-09T00:44:13.637Z,99877.42
2022-08-09T00:44:15.308Z,99879.05
2022-08-09T00:44:54.048Z,99879.73
2022-08-09T00:45:26.093Z,99876.68
2022-08-09T00:45:57.896Z,99879.98
2022-08-09T00:46:55.677Z,99878.50
2022-08-09T00:47:24.719Z,99882.56
2022-08-09T00:47:57.345Z,99883.89
2022-08-09T00:48:29.130Z,99882.61
2022-08-09T00:49:00.945Z,99883.81
2022-08-09T00:49:34.377Z,99886.30
2022-08-09T00:50:07.365Z,99890.11
2022-08-09T00:50:46.764Z,99886.35
2022-08-09T00:51:24.637Z,99888.81
2022-08-09T00:52:05.068Z,99889.02
2022-08-09T00:52:37.561Z,99888.39
2022-08-09T00:53:11.710Z,99888.96
2022-08-09T00:53:46.432Z,99891.84
2022-08-09T00:54:18.426Z,99892.80
2022-08-09T00:54:53.042Z,99890.42
2022-08-09T00:56:03.767Z,99891.16
2022-08-09T00:56:17.225Z,99892.84
2022-08-09T00:56:49.003Z,99890.11
2022-08-09T00:57:33.931Z,99891.81
2022-08-09T00:58:06.132Z,99892.00
2022-08-09T00:58:41.207Z,99890.30
2022-08-09T00:59:40.434Z,99892.05
2022-08-09T01:00:21.207Z,99893.63
2022-08-09T01:00:55.978Z,99895.67
2022-08-09T01:01:44.569Z,99895.35
2022-08-09T01:02:26.821Z,99895.71
2022-08-09T01:03:17.349Z,99893.10
2022-08-09T01:04:22.171Z,99894.73
2022-08-09T01:05:04.854Z,99890.87
2022-08-09T01:06:17.942Z,99888.07
2022-08-09T01:06:57.761Z,99888.89
2022-08-09T01:08:01.068Z,99888.85
2022-08-09T01:08:49.762Z,99888.85
2022-08-09T01:09:47.961Z,99890.83
2022-08-09T01:10:59.959Z,99888.36
2022-08-09T01:11:35.692Z,99889.56
2022-08-09T01:12:19.672Z,99885.77
2022-08-09T01:13:22.158Z,99886.78
2022-08-09T01:14:10.006Z,99886.08
2022-08-09T01:15:06.056Z,99889.31
2022-08-09T01:15:52.915Z,99887.23
2022-08-09T01:16:31.566Z,99887.27
2022-08-09T01:17:10.959Z,99885.73
2022-08-09T01:17:51.990Z,99885.77
2022-08-09T01:18:32.088Z,99883.82
2022-08-09T01:19:42.621Z,99890.90
2022-08-09T01:20:28.684Z,99888.09
2022-08-09T01:21:44.500Z,99890.31
2022-08-09T01:22:39.033Z,99894.90
2022-08-09T01:24:01.023Z,99895.67
2022-08-09T01:24:30.969Z,99898.23
2022-08-09T01:25:33.310Z,99897.57
2022-08-09T01:26:46.694Z,99898.86
2022-08-09T01:27:26.888Z,99895.27
2022-08-09T01:28:02.990Z,99898.40
2022-08-09T01:28:41.465Z,99896.48
2022-08-09T01:29:19.195Z,99892.42
2022-08-09T01:29:55.083Z,99895.80
2022-08-09T01:30:51.319Z,99897.85
2022-08-09T01:32:29.459Z,99896.05
2022-08-09T01:32:30.873Z,99896.15
2022-08-09T01:33:09.902Z,99895.88
2022-08-09T01:33:46.500Z,99896.84
2022-08-09T01:34:21.089Z,99893.60
2022-08-09T01:34:54.774Z,99895.33
2022-08-09T01:35:38.235Z,99892.61
2022-08-09T01:36:19.003Z,99892.70
2022-08-09T01:36:54.438Z,99896.09
2022-08-09T01:37:42.872Z,99897.66
2022-08-09T01:38:25.567Z,99898.77
2022-08-09T01:38:59.312Z,99899.95
2022-08-09T01:39:35.795Z,99898.55
2022-08-09T01:40:10.261Z,99900.44
2022-08-09T01:41:10.018Z,99899.79
2022-08-09T01:41:53.539Z,99901.42
2022-08-09T01:42:34.752Z,99899.13
2022-08-09T01:43:08.134Z,99897.45
2022-08-09T01:43:51.505Z,99899.38
2022-08-09T01:44:27.098Z,99899.01
2022-08-09T01:45:00.440Z,99897.91
2022-08-09T01:45:34.029Z,99896.20
2022-08-09T01:46:09.446Z,99897.59
2022-08-09T01:46:47.129Z,99895.98
2022-08-09T01:47:21.028Z,99895.13
2022-08-09T01:47:56.726Z,99895.75
2022-08-09T01:48:31.516Z,99893.94
2022-08-09T01:49:09.501Z,99893.85
2022-08-09T01:49:50.882Z,99894.91
2022-08-09T01:50:36.437Z,99894.06
2022-08-09T01:51:09.965Z,99894.14
2022-08-09T01:51:53.742Z,99896.55
2022-08-09T01:52:27.310Z,99896.80
2022-08-09T01:53:02.498Z,99897.45
2022-08-09T01:53:58.004Z,99896.30
2022-08-09T01:54:33.255Z,99896.88
2022-08-09T01:55:06.545Z,99898.59
2022-08-09T01:55:41.605Z,99899.13
2022-08-09T01:56:17.614Z,99898.27
2022-08-09T01:56:52.184Z,99899.02
2022-08-09T01:57:29.060Z,99896.68
2022-08-09T01:58:03.173Z,99900.20
2022-08-09T01:58:37.310Z,99899.21
2022-08-09T01:59:16.135Z,99897.45
2022-08-09T01:59:53.102Z,99902.69
2022-08-09T02:00:35.525Z,99901.67
2022-08-09T02:01:09.916Z,99904.12
2022-08-09T02:01:58.047Z,99902.45
2022-08-09T02:02:36.479Z,99902.73
2022-08-09T02:03:13.816Z,99902.53
2022-08-09T02:03:46.880Z,99902.48
2022-08-09T02:04:21.826Z,99903.34
2022-08-09T02:04:56.308Z,99903.27
2022-08-09T02:05:37.871Z,99901.17
2022-08-09T02:06:17.761Z,99898.39
2022-08-09T02:07:18.186Z,99894.91
2022-08-09T02:08:40.801Z,99895.26
2022-08-09T02:08:59.742Z,99892.59
2022-08-09T02:09:42.038Z,99891.69
2022-08-09T02:10:29.900Z,99893.89
2022-08-09T02:11:03.528Z,99888.28
2022-08-09T02:11:49.311Z,99888.09
2022-08-09T02:12:23.220Z,99889.40
2022-08-09T02:12:57.141Z,99892.02
2022-08-09T02:13:37.477Z,99890.55
2022-08-09T02:14:25.439Z,99891.89
2022-08-09T02:15:00.530Z,99893.77
2022-08-09T02:15:50.409Z,99896.36
2022-08-09T02:16:30.932Z,99895.22
2022-08-09T02:17:15.456Z,99894.48
2022-08-09T02:18:10.570Z,99894.85
2022-08-09T02:18:47.739Z,99894.27
2022-08-09T02:19:21.302Z,99894.65
2022-08-09T02:19:53.235Z,99895.18
2022-08-09T02:20:32.876Z,99896.84
2022-08-09T02:21:08.794Z,99894.71
2022-08-09T02:21:46.900Z,99895.62
2022-08-09T02:22:37.854Z,99898.61
2022-08-09T02:23:43.177Z,99899.99
2022-08-09T02:24:25.881Z,99898.58
2022-08-09T02:25:02.693Z,99897.96
2022-08-09T02:25:42.357Z,99899.14
2022-08-09T02:26:27.185Z,99902.34
2022-08-09T02:27:03.806Z,99898.20
2022-08-09T02:27:57.343Z,99899.27
2022-08-09T02:28:38.717Z,99896.81
2022-08-09T02:29:23.994Z,99895.95
2022-08-09T02:29:58.314Z,99896.90
2022-08-09T02:30:42.824Z,99896.20
2022-08-09T02:31:27.516Z,99899.67
2022-08-09T02:32:07.159Z,99898.01
2022-08-09T02:32:44.401Z,99899.16
2022-08-09T02:33:37.946Z,99898.09
2022-08-09T02:34:40.903Z,99897.15
2022-08-09T02:35:17.864Z,99896.00
2022-08-09T02:36:02.664Z,99892.89
2022-08-09T02:36:42.052Z,99896.23
2022-08-09T02:37:16.865Z,99896.66
2022-08-09T02:37:52.662Z,99896.30
2022-08-09T02:38:32.320Z,99898.62
2022-08-09T02:39:14.578Z,99898.49
2022-08-09T02:40:03.508Z,99900.95
2022-08-09T02:40:38.576Z,99897.80
2022-08-09T02:41:14.394Z,99899.84
2022-08-09T02:42:08.330Z,99903.36
2022-08-09T02:42:42.893Z,99900.83
2022-08-09T02:43:17.029Z,99898.75
2022-08-09T02:43:58.686Z,99898.13
2022-08-09T02:44:37.902Z,99898.27
2022-08-09T02:45:32.737Z,99898.40
2022-08-09T02:46:08.571Z,99894.84
2022-08-09T02:46:43.217Z,99898.45
2022-08-09T02:47:19.636Z,99898.83
2022-08-09T02:47:58.838Z,99897.47
2022-08-09T02:48:34.492Z,99898.20
2022-08-09T02:49:10.593Z,99897.27
2022-08-09T02:50:01.255Z,99897.27
2022-08-09T02:50:42.855Z,99895.96
2022-08-09T02:51:19.925Z,99893.05
2022-08-09T02:51:57.014Z,99897.52
2022-08-09T02:52:49.500Z,99892.81
2022-08-09T02:53:39.437Z,99894.36
2022-08-09T02:54:16.471Z,99896.86
2022-08-09T02:54:54.578Z,99894.04
2022-08-09T02:55:46.528Z,99893.80
2022-08-09T02:56:25.078Z,99894.65
2022-08-09T02:57:13.548Z,99890.36
2022-08-09T02:58:00.561Z,99891.61
2022-08-09T02:58:41.865Z,99892.40
2022-08-09T02:59:25.935Z,99886.96
2022-08-09T03:00:20.933Z,99889.30
2022-08-09T03:00:59.601Z,99890.94
2022-08-09T03:02:05.541Z,99885.84
2022-08-09T03:02:30.895Z,99889.66
2022-08-09T03:03:06.733Z,99889.42
2022-08-09T03:04:17.981Z,99885.70
2022-08-09T03:04:37.014Z,99889.95
2022-08-09T03:05:16.688Z,99886.19
2022-08-09T03:05:51.305Z,99888.29
2022-08-09T03:06:29.017Z,99890.66
2022-08-09T03:07:12.386Z,99894.38
2022-08-09T03:07:55.216Z,99891.77
2022-08-09T03:08:29.002Z,99894.52
2022-08-09T03:09:04.381Z,99891.15
2022-08-09T03:09:42.871Z,99893.16
2022-08-09T03:10:16.062Z,99893.55
2022-08-09T03:10:50.809Z,99892.24
2022-08-09T03:12:04.529Z,99894.05
2022-08-09T03:12:18.363Z,99892.41
2022-08-09T03:12:52.819Z,99894.65
2022-08-09T03:13:26.465Z,99895.41
2022-08-09T03:14:19.557Z,99898.30
2022-08-09T03:14:54.980Z,99899.13
2022-08-09T03:16:04.257Z,99897.70
2022-08-09T03:16:19.659Z,99899.30
2022-08-09T03:16:53.399Z,99900.73
2022-08-09T03:17:27.533Z,99900.36
2022-08-09T03:18:02.112Z,99899.09
2022-08-09T03:18:43.045Z,99900.30
2022-08-09T03:19:59.278Z,99900.48
2022-08-09T03:20:13.705Z,99900.55
2022-08-09T03:20:48.206Z,99899.29
2022-08-09T03:21:25.857Z,99900.27
2022-08-09T03:21:58.541Z,99900.88
2022-08-09T03:22:33.134Z,99899.13
2022-08-09T03:23:24.197Z,99900.96
2022-08-09T03:24:03.617Z,99898.67
2022-08-09T03:24:42.717Z,99899.86
2022-08-09T03:26:03.475Z,99900.80
2022-08-09T03:26:20.491Z,99900.07
2022-08-09T03:27:07.366Z,99901.58
2022-08-09T03:27:45.457Z,99902.11
2022-08-09T03:28:18.735Z,99901.70
2022-08-09T03:28:55.205Z,99899.79
2022-08-09T03:29:28.443Z,99900.80
2022-08-09T03:30:08.480Z,99900.23
2022-08-09T03:30:40.707Z,99901.70
2022-08-09T03:31:21.248Z,99902.77
2022-08-09T03:32:00.413Z,99900.11
2022-08-09T03:32:36.840Z,99898.72
2022-08-09T03:33:13.400Z,99899.38
2022-08-09T03:33:53.090Z,99901.66
2022-08-09T03:34:25.953Z,99900.11
2022-08-09T03:35:00.209Z,99901.23
2022-08-09T03:36:11.087Z,99901.64
2022-08-09T03:36:27.406Z,99902.05
2022-08-09T03:37:02.418Z,99901.79
2022-08-09T03:37:55.471Z,99900.56
2022-08-09T03:38:30.508Z,99901.05
2022-08-09T03:39:04.041Z,99902.90
2022-08-09T03:39:37.902Z,99899.66
2022-08-09T03:40:13.042Z,99902.11
2022-08-09T03:40:45.273Z,99899.70
2022-08-09T03:41:18.470Z,99898.44
2022-08-09T03:41:51.405Z,99899.58
2022-08-09T03:42:39.427Z,99899.08
2022-08-09T03:43:14.823Z,99901.83
2022-08-09T03:44:03.285Z,99903.80
2022-08-09T03:44:39.994Z,99902.11
2022-08-09T03:45:11.830Z,99898.60
2022-08-09T03:46:04.315Z,99902.70
2022-08-09T03:46:36.729Z,99902.23
2022-08-09T03:47:08.737Z,99900.85
2022-08-09T03:47:44.153Z,99901.23
2022-08-09T03:48:29.281Z,99902.50
2022-08-09T03:49:08.880Z,99903.15
2022-08-09T03:49:41.868Z,99904.77
2022-08-09T03:50:32.841Z,99903.30
2022-08-09T03:51:07.773Z,99905.39
2022-08-09T03:52:03.840Z,99902.98
2022-08-09T03:52:38.117Z,99907.23
2022-08-09T03:53:11.300Z,99902.61
2022-08-09T03:53:44.358Z,99903.52
2022-08-09T03:54:19.110Z,99903.55
2022-08-09T03:55:07.656Z,99902.37
2022-08-09T03:55:42.537Z,99905.27
2022-08-09T03:56:14.514Z,99902.86
2022-08-09T03:56:46.825Z,99902.98
2022-08-09T03:57:20.793Z,99899.80
2022-08-09T03:58:06.652Z,99902.60
2022-08-09T03:58:46.024Z,99900.41
2022-08-09T03:59:27.228Z,99901.20
2022-08-09T04:00:00.572Z,99902.87
2022-08-09T04:00:33.884Z,99903.98
2022-08-09T04:01:06.439Z,99901.16
2022-08-09T04:01:40.814Z,99904.30
2022-08-09T04:02:14.210Z,99902.02
2022-08-09T04:02:48.006Z,99903.77
2022-08-09T04:03:45.778Z,99900.01
2022-08-09T04:04:18.719Z,99899.93
2022-08-09T04:04:51.079Z,99901.44
2022-08-09T04:05:27.648Z,99898.70
2022-08-09T04:06:00.213Z,99896.58
2022-08-09T04:06:37.020Z,99897.14
2022-08-09T04:07:09.796Z,99897.27
2022-08-09T04:07:53.214Z,99894.54
2022-08-09T04:08:29.732Z,99895.09
2022-08-09T04:09:03.428Z,99895.42
2022-08-09T04:09:52.913Z,99896.90
2022-08-09T04:10:29.635Z,99894.77
2022-08-09T04:11:02.229Z,99896.05
2022-08-09T04:11:59.262Z,99898.13
2022-08-09T04:12:49.914Z,99898.61
2022-08-09T04:13:26.420Z,99897.75
2022-08-09T04:14:53.254Z,99905.56
2022-08-09T04:15:11.386Z,99903.85
2022-08-09T04:16:18.781Z,99903.11
2022-08-09T04:16:41.015Z,99907.52
2022-08-09T04:17:14.175Z,99908.50
2022-08-09T04:17:47.626Z,99903.79
2022-08-09T04:18:21.528Z,99907.25
2022-08-09T04:18:53.865Z,99904.34
2022-08-09T04:19:30.069Z,99905.86
2022-08-09T04:20:16.111Z,99904.80
2022-08-09T04:20:48.227Z,99905.12
2022-08-09T04:21:20.277Z,99908.14
2022-08-09T04:21:54.117Z,99905.80
2022-08-09T04:22:28.018Z,99907.53
2022-08-09T04:22:59.941Z,99905.85
2022-08-09T04:23:31.842Z,99904.66
2022-08-09T04:24:06.345Z,99905.80
2022-08-09T04:24:38.015Z,99908.27
2022-08-09T04:25:13.247Z,99904.52
2022-08-09T04:25:52.242Z,99909.27
2022-08-09T04:26:25.215Z,99908.91
2022-08-09T04:27:09.795Z,99903.92
2022-08-09T04:27:42.764Z,99905.34
2022-08-09T04:28:34.079Z,99908.30
2022-08-09T04:29:13.362Z,99911.00
2022-08-09T04:29:49.954Z,99909.19
2022-08-09T04:30:23.421Z,99910.45
2022-08-09T04:30:58.101Z,99910.23
2022-08-09T04:31:37.540Z,99911.33
2022-08-09T04:32:31.245Z,99910.05
2022-08-09T04:33:05.948Z,99912.27
2022-08-09T04:33:52.865Z,99912.91
2022-08-09T04:34:30.802Z,99914.80
2022-08-09T04:35:06.189Z,99914.23
2022-08-09T04:35:42.337Z,99916.60
2022-08-09T04:36:14.266Z,99917.25
2022-08-09T04:36:51.272Z,99917.41
2022-08-09T04:37:24.664Z,99917.95
2022-08-09T04:38:16.559Z,99917.34
2022-08-09T04:38:50.423Z,99920.23
2022-08-09T04:39:22.320Z,99918.60
2022-08-09T04:39:55.245Z,99921.58
2022-08-09T04:40:46.997Z,99921.08
2022-08-09T04:41:19.062Z,99922.81
2022-08-09T04:41:55.485Z,99922.56
2022-08-09T04:42:32.527Z,99919.49
2022-08-09T04:43:07.371Z,99922.32
2022-08-09T04:43:39.119Z,99923.09
2022-08-09T04:44:26.532Z,99926.51
2022-08-09T04:45:00.547Z,99919.37
2022-08-09T04:45:36.214Z,99923.27
2022-08-09T04:46:37.781Z,99921.63
2022-08-09T04:47:16.398Z,99924.86
2022-08-09T04:47:59.355Z,99922.39
2022-08-09T04:48:35.947Z,99923.09
2022-08-09T04:49:09.952Z,99924.73
2022-08-09T04:49:54.167Z,99926.54
2022-08-09T04:50:31.727Z,99927.56
2022-08-09T04:51:07.043Z,99929.18
2022-08-09T04:51:38.801Z,99927.56
2022-08-09T04:52:10.880Z,99930.96
2022-08-09T04:52:43.203Z,99930.95
2022-08-09T04:53:16.203Z,99927.89
2022-08-09T04:53:51.185Z,99930.42
2022-08-09T04:54:25.747Z,99931.77
2022-08-09T04:55:00.539Z,99933.48
2022-08-09T04:55:39.054Z,99933.43
2022-08-09T04:56:26.253Z,99932.84
2022-08-09T04:56:58.890Z,99935.79
2022-08-09T04:57:59.464Z,99934.31
2022-08-09T04:58:22.453Z,99936.07
2022-08-09T04:58:54.223Z,99938.77
2022-08-09T04:59:27.411Z,99938.05
2022-08-09T05:00:05.062Z,99936.71
2022-08-09T05:00:37.052Z,99935.69
2022-08-09T05:01:16.372Z,99937.71
2022-08-09T05:01:50.771Z,99939.05
2022-08-09T05:02:27.501Z,99934.84
2022-08-09T05:03:01.134Z,99935.05
2022-08-09T05:03:58.513Z,99936.60
2022-08-09T05:04:31.341Z,99936.23
2022-08-09T05:05:09.867Z,99937.80
2022-08-09T05:05:52.727Z,99937.71
2022-08-09T05:06:35.935Z,99937.58
2022-08-09T05:07:08.061Z,99937.46
2022-08-09T05:07:50.994Z,99939.79
2022-08-09T05:08:25.575Z,99939.63
2022-08-09T05:09:01.345Z,99940.07
2022-08-09T05:09:49.479Z,99938.39
2022-08-09T05:10:22.550Z,99943.03
2022-08-09T05:10:55.463Z,99940.77
2022-08-09T05:11:32.412Z,99939.04
2022-08-09T05:12:07.792Z,99940.44
2022-08-09T05:12:41.355Z,99939.11
2022-08-09T05:13:13.303Z,99938.58
2022-08-09T05:13:46.884Z,99940.95
2022-08-09T05:14:20.548Z,99938.77
2022-08-09T05:14:58.856Z,99937.10
2022-08-09T05:15:39.124Z,99937.38
2022-08-09T05:16:15.460Z,99934.94
2022-08-09T05:16:59.163Z,99931.52
2022-08-09T05:18:37.905Z,99934.27
2022-08-09T05:18:38.647Z,99933.36
2022-08-09T05:19:24.430Z,99935.17
2022-08-09T05:19:58.451Z,99938.48
2022-08-09T05:20:30.684Z,99935.39
2022-08-09T05:21:09.736Z,99936.11
2022-08-09T05:21:47.253Z,99939.59
2022-08-09T05:22:35.005Z,99942.54
2022-08-09T05:23:58.303Z,99940.73
2022-08-09T05:24:11.171Z,99941.48
2022-08-09T05:24:43.146Z,99942.42
2022-08-09T05:25:20.534Z,99944.05
2022-08-09T05:25:52.887Z,99943.39
2022-08-09T05:26:32.213Z,99940.48
2022-08-09T05:27:09.352Z,99944.95
2022-08-09T05:27:48.078Z,99943.39
2022-08-09T05:28:20.652Z,99945.88
2022-08-09T05:28:52.584Z,99942.90
2022-08-09T05:29:31.603Z,99945.84
2022-08-09T05:30:08.856Z,99944.65
2022-08-09T05:30:41.880Z,99948.74
2022-08-09T05:31:37.080Z,99945.58
2022-08-09T05:32:11.450Z,99947.02
2022-08-09T05:32:44.500Z,99947.79
2022-08-09T05:33:16.472Z,99947.13
2022-08-09T05:33:48.271Z,99948.86
2022-08-09T05:34:20.359Z,99948.58
2022-08-09T05:34:52.134Z,99947.46
2022-08-09T05:35:24.060Z,99947.51
2022-08-09T05:35:57.069Z,99950.33
2022-08-09T05:36:29.190Z,99950.59
2022-08-09T05:37:06.365Z,99951.64
2022-08-09T05:37:47.773Z,99952.09
2022-08-09T05:38:21.812Z,99950.77
2022-08-09T05:38:54.342Z,99949.63
2022-08-09T05:39:29.086Z,99953.26
2022-08-09T05:40:01.785Z,99956.80
2022-08-09T05:40:33.849Z,99959.79
2022-08-09T05:41:05.954Z,99959.11
2022-08-09T05:41:44.616Z,99960.97
2022-08-09T05:42:18.043Z,99963.41
2022-08-09T05:42:55.233Z,99962.66
2022-08-09T05:43:29.147Z,99963.93
2022-08-09T05:44:04.231Z,99960.88
2022-08-09T05:44:37.341Z,99963.79
2022-08-09T05:45:14.646Z,99963.30
2022-08-09T05:45:55.899Z,99966.48
2022-08-09T05:46:29.219Z,99966.00
2022-08-09T05:47:01.440Z,99963.84
2022-08-09T05:47:40.869Z,99963.55
2022-08-09T05:48:32.802Z,99962.70
2022-08-09T05:49:07.471Z,99964.65
2022-08-09T05:50:35.076Z,99962.73
2022-08-09T05:50:57.041Z,99962.50
2022-08-09T05:51:45.918Z,99960.90
2022-08-09T05:52:19.528Z,99960.73
2022-08-09T05:52:54.119Z,99961.72
2022-08-09T05:53:31.776Z,99959.30
2022-08-09T05:54:05.601Z,99956.92
2022-08-09T05:54:38.354Z,99957.25
2022-08-09T05:55:20.385Z,99958.16
2022-08-09T05:55:53.484Z,99954.95
2022-08-09T05:56:27.848Z,99955.58
2022-08-09T05:56:59.590Z,99954.91
2022-08-09T05:57:50.663Z,99954.80
2022-08-09T05:58:23.075Z,99955.66
2022-08-09T05:58:59.579Z,99955.20
2022-08-09T05:59:31.425Z,99953.64
2022-08-09T06:00:07.524Z,99954.98
2022-08-09T06:00:39.636Z,99956.05
2022-08-09T06:01:15.967Z,99955.68
2022-08-09T06:01:48.906Z,99959.56
2022-08-09T06:02:22.075Z,99959.23
2022-08-09T06:02:56.985Z,99961.08
2022-08-09T06:03:44.251Z,99963.89
2022-08-09T06:04:23.420Z,99962.71
2022-08-09T06:04:55.825Z,99968.37
2022-08-09T06:05:54.609Z,99968.63
2022-08-09T06:06:25.975Z,99971.86
2022-08-09T06:06:58.232Z,99973.16
2022-08-09T06:07:30.253Z,99975.08
2022-08-09T06:08:05.287Z,99975.22
2022-08-09T06:08:39.839Z,99970.58
2022-08-09T06:09:23.174Z,99972.61
2022-08-09T06:10:04.366Z,99970.85
2022-08-09T06:10:39.163Z,99970.21
2022-08-09T06:11:17.476Z,99968.65
2022-08-09T06:11:56.920Z,99967.23
2022-08-09T06:12:30.487Z,99967.25
2022-08-09T06:13:11.707Z,99964.57
2022-08-09T06:13:44.948Z,99966.52
2022-08-09T06:14:19.370Z,99967.00
2022-08-09T06:14:51.177Z,99967.28
2022-08-09T06:15:23.148Z,99969.08
2022-08-09T06:15:58.495Z,99970.84
2022-08-09T06:16:33.640Z,99969.41
2022-08-09T06:17:09.462Z,99968.98
2022-08-09T06:17:42.220Z,99970.16
2022-08-09T06:18:24.778Z,99971.52
2022-08-09T06:18:57.527Z,99970.93
2022-08-09T06:19:30.009Z,99970.02
2022-08-09T06:20:05.100Z,99970.20
2022-08-09T06:20:38.732Z,99972.80
2022-08-09T06:21:11.083Z,99973.52
2022-08-09T06:21:50.543Z,99972.17
2022-08-09T06:22:30.479Z,99972.92
2022-08-09T06:23:02.420Z,99975.15
2022-08-09T06:23:58.171Z,99973.28
2022-08-09T06:24:27.139Z,99973.55
2022-08-09T06:24:58.860Z,99975.02
2022-08-09T06:25:31.206Z,99973.35
2022-08-09T06:26:06.942Z,99975.55
2022-08-09T06:26:41.677Z,99974.05
2022-08-09T06:27:17.492Z,99975.23
2022-08-09T06:27:51.749Z,99975.15
2022-08-09T06:28:27.411Z,99974.52
2022-08-09T06:29:05.185Z,99973.83
2022-08-09T06:29:48.091Z,99972.02
2022-08-09T06:30:29.635Z,99973.70
2022-08-09T06:31:01.426Z,99973.21
2022-08-09T06:31:40.618Z,99971.36
2022-08-09T06:32:59.822Z,99971.89
2022-08-09T06:33:39.689Z,99972.90
2022-08-09T06:34:10.002Z,99969.05
2022-08-09T06:34:41.939Z,99969.86
2022-08-09T06:35:14.579Z,99968.63
2022-08-09T06:35:56.795Z,99969.86
2022-08-09T06:36:29.873Z,99970.56
2022-08-09T06:37:02.032Z,99969.75
2022-08-09T06:37:52.982Z,99968.19
2022-08-09T06:38:31.887Z,99968.19
2022-08-09T06:39:09.159Z,99969.45
2022-08-09T06:39:57.665Z,99968.65
2022-08-09T06:40:33.838Z,99970.94
2022-08-09T06:41:18.116Z,99969.63
2022-08-09T06:42:08.129Z,99968.10
2022-08-09T06:42:45.196Z,99973.79
2022-08-09T06:43:19.363Z,99969.42
2022-08-09T06:43:53.066Z,99972.20
2022-08-09T06:44:25.109Z,99969.63
2022-08-09T06:44:59.201Z,99969.98
2022-08-09T06:46:07.697Z,99971.98
2022-08-09T06:46:40.285Z,99972.52
2022-08-09T06:47:13.325Z,99971.15
2022-08-09T06:47:48.217Z,99972.42
2022-08-09T06:48:30.978Z,99971.13
2022-08-09T06:49:03.641Z,99973.73
2022-08-09T06:50:11.526Z,99970.98
2022-08-09T06:50:28.045Z,99974.70
2022-08-09T06:51:05.275Z,99970.98
2022-08-09T06:51:40.072Z,99977.45
2022-08-09T06:52:15.624Z,99978.97
2022-08-09T06:52:49.048Z,99977.73
2022-08-09T06:53:21.149Z,99977.40
2022-08-09T06:53:53.040Z,99976.30
2022-08-09T06:54:26.284Z,99980.46
2022-08-09T06:54:58.270Z,99979.02
2022-08-09T06:55:32.560Z,99978.56
2022-08-09T06:56:05.500Z,99981.70
2022-08-09T06:56:38.087Z,99981.95
2022-08-09T06:57:11.613Z,99983.63
2022-08-09T06:58:03.469Z,99981.32
2022-08-09T07:00:46.776Z,99982.09
2022-08-09T07:00:50.575Z,99985.36
2022-08-09T07:00:55.528Z,99983.81
2022-08-09T07:01:12.764Z,99986.75
2022-08-09T07:01:54.266Z,99982.45
2022-08-09T07:02:31.947Z,99987.05
2022-08-09T07:03:06.156Z,99987.38
2022-08-09T07:03:39.672Z,99987.38
2022-08-09T07:04:26.983Z,99988.90
2022-08-09T07:05:00.467Z,99991.81
2022-08-09T07:06:02.543Z,99990.45
2022-08-09T07:06:25.489Z,99990.25
2022-08-09T07:07:01.045Z,99993.34
2022-08-09T07:08:00.807Z,99992.13
2022-08-09T07:08:30.536Z,99996.27
2022-08-09T07:09:02.766Z,99996.40
2022-08-09T07:09:54.832Z,99996.36
2022-08-09T07:10:31.175Z,99998.31
2022-08-09T07:11:05.185Z,99997.38
2022-08-09T07:11:51.894Z,99998.08
2022-08-09T07:12:38.616Z,99996.10
2022-08-09T07:13:27.476Z,100000.26
2022-08-09T07:14:05.516Z,99999.89
2022-08-09T07:14:38.335Z,100002.50
2022-08-09T07:16:34.986Z,100000.92
2022-08-09T07:16:42.832Z,100004.69
2022-08-09T07:16:57.920Z,100002.36
2022-08-09T07:17:39.697Z,100002.59
2022-08-09T07:18:22.038Z,100006.38
2022-08-09T07:18:53.879Z,100004.27
2022-08-09T07:19:26.100Z,100005.80
2022-08-09T07:19:59.115Z,100005.30
2022-08-09T07:20:31.764Z,100009.08
2022-08-09T07:21:03.811Z,100008.21
2022-08-09T07:21:40.897Z,100005.92
2022-08-09T07:22:35.204Z,100008.33
2022-08-09T07:23:18.140Z,100006.48
2022-08-09T07:23:58.080Z,100005.83
2022-08-09T07:24:39.899Z,100005.04
2022-08-09T07:25:13.666Z,100006.06
2022-08-09T07:25:52.178Z,100007.56
2022-08-09T07:26:25.222Z,100009.64
2022-08-09T07:26:58.932Z,100008.27
2022-08-09T07:27:33.895Z,100010.16
2022-08-09T07:28:06.398Z,100008.16
2022-08-09T07:29:08.856Z,100007.36
2022-08-09T07:29:38.113Z,100013.30
2022-08-09T07:30:14.796Z,100009.61
2022-08-09T07:30:47.140Z,100010.92
2022-08-09T07:31:20.617Z,100009.85
2022-08-09T07:31:57.174Z,100011.33
2022-08-09T07:32:33.432Z,100014.37
2022-08-09T07:33:10.258Z,100010.80
2022-08-09T07:33:53.187Z,100012.06
2022-08-09T07:34:28.009Z,100012.36
2022-08-09T07:35:00.613Z,100012.26
2022-08-09T07:35:34.957Z,100012.28
2022-08-09T07:36:25.620Z,100012.76
2022-08-09T07:36:57.615Z,100015.82
2022-08-09T07:37:43.944Z,100018.20
2022-08-09T07:38:16.710Z,100017.50
2022-08-09T07:38:56.777Z,100020.73
2022-08-09T07:39:41.379Z,100017.41
2022-08-09T07:40:18.809Z,100016.56
2022-08-09T07:41:10.013Z,100020.98
2022-08-09T07:41:44.944Z,100021.27